Terminal Aerodrome Forecast
Issued by NWS

Home | Current Version | Previous Version | Graphics & Text | Print | Product List | Glossary On
Versions: 1 2 3 4 5 6 7 8 9 10 11 12 13 14 15 16 17 18 19 20 21 22 23 24 25 26 27
000
FTUS43 KLOT 240521
TAFORD
TAF
KORD 240521Z 2406/2512 04005KT 3SM -SHRA BR SCT010 OVC060
     FM241000 03006KT 4SM BR VCSH SCT003 OVC007
     FM241500 03010KT P6SM VCSH SCT009 BKN015
     FM241800 02012G20KT P6SM SCT009 SCT020 BKN050
     FM250100 35010KT P6SM SCT007 SCT015 BKN030=

USA.gov is the U.S. government's official web portal to all federal, state and local government web resources and services.